sensor_id;sensor_type;location;lat;lon;timestamp;temperature;humidity
24176;DHT22;12324;48.146;11.502;2023-04-03T13:00:33;7.20;99.90
24176;DHT22;12324;48.146;11.502;2023-04-03T13:03:02;7.20;99.90
24176;DHT22;12324;48.146;11.502;2023-04-03T13:05:31;7.40;99.90
24176;DHT22;12324;48.146;11.502;2023-04-03T13:08:05;7.00;99.90
24176;DHT22;12324;48.146;11.502;2023-04-03T13:10:32;6.70;99.90
24176;DHT22;12324;48.146;11.502;2023-04-03T13:13:13;6.70;99.90
24176;DHT22;12324;48.146;11.502;2023-04-03T13:15:44;6.90;99.90
24176;DHT22;12324;48.146;11.502;2023-04-03T13:20:52;7.20;99.90
24176;DHT22;12324;48.146;11.502;2023-04-03T13:23:20;6.90;99.90
24176;DHT22;12324;48.146;11.502;2023-04-03T13:25:48;6.90;99.90
24176;DHT22;12324;48.146;11.502;2023-04-03T13:28:19;6.80;99.90
24176;DHT22;12324;48.146;11.502;2023-04-03T13:30:59;6.50;99.90
24176;DHT22;12324;48.146;11.502;2023-04-03T13:33:32;6.40;99.90
24176;DHT22;12324;48.146;11.502;2023-04-03T13:43:32;6.10;99.90
24176;DHT22;12324;48.146;11.502;2023-04-03T13:46:06;5.80;99.90
24176;DHT22;12324;48.146;11.502;2023-04-03T13:48:51;5.90;99.90
24176;DHT22;12324;48.146;11.502;2023-04-03T13:51:22;5.80;99.90
24176;DHT22;12324;48.146;11.502;2023-04-03T13:53:56;5.80;99.90
24176;DHT22;12324;48.146;11.502;2023-04-03T14:01:22;5.70;99.90
24176;DHT22;12324;48.146;11.502;2023-04-03T14:06:19;5.70;99.90
24176;DHT22;12324;48.146;11.502;2023-04-03T14:08:47;5.60;99.90
24176;DHT22;12324;48.146;11.502;2023-04-03T14:11:19;5.70;99.90
24176;DHT22;12324;48.146;11.502;2023-04-03T14:13:47;5.70;99.90
24176;DHT22;12324;48.146;11.502;2023-04-03T14:16:17;5.70;99.90
24176;DHT22;12324;48.146;11.502;2023-04-03T14:18:46;5.90;99.90
24176;DHT22;12324;48.146;11.502;2023-04-03T14:21:14;6.00;99.90
24176;DHT22;12324;48.146;11.502;2023-04-03T14:23:41;6.20;99.90
24176;DHT22;12324;48.146;11.502;2023-04-03T14:26:17;6.10;99.90
24176;DHT22;12324;48.146;11.502;2023-04-03T14:46:17;6.60;99.90
24176;DHT22;12324;48.146;11.502;2023-04-03T14:48:45;8.90;86.30
24176;DHT22;12324;48.146;11.502;2023-04-03T14:53:41;10.50;64.80
24176;DHT22;12324;48.146;11.502;2023-04-03T14:56:26;10.90;56.10
24176;DHT22;12324;48.146;11.502;2023-04-03T16:03:16;10.50;55.40
24176;DHT22;12324;48.146;11.502;2023-04-03T16:05:44;6.60;65.00
24176;DHT22;12324;48.146;11.502;2023-04-03T16:10:38;6.80;60.40
24176;DHT22;12324;48.146;11.502;2023-04-03T16:30:20;8.10;59.90
24176;DHT22;12324;48.146;11.502;2023-04-03T16:42:35;7.20;57.70
24176;DHT22;12324;48.146;11.502;2023-04-03T16:45:04;5.90;61.90
24176;DHT22;12324;48.146;11.502;2023-04-03T16:47:32;5.60;64.80
24176;DHT22;12324;48.146;11.502;2023-04-03T16:49:59;5.60;64.20
24176;DHT22;12324;48.146;11.502;2023-04-03T17:24:30;5.30;64.40
24176;DHT22;12324;48.146;11.502;2023-04-03T17:26:56;4.50;94.60
24176;DHT22;12324;48.146;11.502;2023-04-03T17:29:23;4.40;93.90
24176;DHT22;12324;48.146;11.502;2023-04-03T17:31:50;4.40;95.30
24176;DHT22;12324;48.146;11.502;2023-04-03T17:34:17;4.50;95.80
24176;DHT22;12324;48.146;11.502;2023-04-03T17:36:44;4.40;96.80
24176;DHT22;12324;48.146;11.502;2023-04-03T17:39:10;4.30;98.50
24176;DHT22;12324;48.146;11.502;2023-04-03T17:41:37;4.20;99.90
24176;DHT22;12324;48.146;11.502;2023-04-03T17:44:04;4.20;99.90
24176;DHT22;12324;48.146;11.502;2023-04-03T17:46:31;4.20;99.90
24176;DHT22;12324;48.146;11.502;2023-04-03T17:49:00;4.10;99.90
24176;DHT22;12324;48.146;11.502;2023-04-03T17:51:29;4.00;99.90
24176;DHT22;12324;48.146;11.502;2023-04-03T17:53:56;3.80;99.90
24176;DHT22;12324;48.146;11.502;2023-04-03T17:56:24;3.80;99.90
24176;DHT22;12324;48.146;11.502;2023-04-03T17:58:54;3.80;99.90
24176;DHT22;12324;48.146;11.502;2023-04-03T18:01:27;3.70;99.90
24176;DHT22;12324;48.146;11.502;2023-04-03T18:03:56;3.70;99.90
24176;DHT22;12324;48.146;11.502;2023-04-03T18:06:32;3.60;99.90
24176;DHT22;12324;48.146;11.502;2023-04-03T18:09:09;3.60;99.90
24176;DHT22;12324;48.146;11.502;2023-04-03T18:11:37;3.60;99.90
24176;DHT22;12324;48.146;11.502;2023-04-03T18:14:06;3.50;99.90
24176;DHT22;12324;48.146;11.502;2023-04-03T18:16:34;3.60;99.90
24176;DHT22;12324;48.146;11.502;2023-04-03T18:19:01;3.50;99.90
24176;DHT22;12324;48.146;11.502;2023-04-03T18:21:48;3.50;99.90
24176;DHT22;12324;48.146;11.502;2023-04-03T18:24:17;3.50;99.90
24176;DHT22;12324;48.146;11.502;2023-04-03T18:26:48;3.50;99.90
24176;DHT22;12324;48.146;11.502;2023-04-03T20:28:39;3.40;99.90
24176;DHT22;12324;48.146;11.502;2023-04-03T20:31:06;1.30;99.90
24176;DHT22;12324;48.146;11.502;2023-04-03T20:33:34;1.20;99.90
24176;DHT22;12324;48.146;11.502;2023-04-03T20:36:02;1.20;99.90
24176;DHT22;12324;48.146;11.502;2023-04-03T20:38:29;1.10;99.90
24176;DHT22;12324;48.146;11.502;2023-04-03T20:40:56;1.10;99.90
24176;DHT22;12324;48.146;11.502;2023-04-03T20:43:23;1.20;99.90
24176;DHT22;12324;48.146;11.502;2023-04-03T20:45:50;1.20;99.90
24176;DHT22;12324;48.146;11.502;2023-04-03T20:48:18;1.20;99.90
24176;DHT22;12324;48.146;11.502;2023-04-03T20:50:45;1.10;99.90
24176;DHT22;12324;48.146;11.502;2023-04-03T20:53:13;1.00;99.90
24176;DHT22;12324;48.146;11.502;2023-04-03T20:55:40;1.00;99.90
24176;DHT22;12324;48.146;11.502;2023-04-03T20:58:09;1.00;99.90
24176;DHT22;12324;48.146;11.502;2023-04-03T21:00:36;0.90;99.90
24176;DHT22;12324;48.146;11.502;2023-04-03T21:03:04;0.90;99.90
24176;DHT22;12324;48.146;11.502;2023-04-03T21:05:31;0.80;99.90
24176;DHT22;12324;48.146;11.502;2023-04-03T21:19:41;0.60;99.90
